Time;durP1;ratioP1;P1;durP2;ratioP2;P2;SDS_P1;SDS_P2;PMS_P1;PMS_P2;Temp;Humidity;BMP_temperature;BMP_pressure;BME280_temperature;BME280_humidity;BME280_pressure;Samples;Min_cycle;Max_cycle;Signal;HPM_P1;HPM_P2
2023/05/02 00:00:53;;;;;;;;;;;11.50;99.90;;;;;;5033050;28;19925;-78
2023/05/02 00:03:20;;;;;;;;;;;11.50;99.90;;;;;;5033223;28;19931;-77
2023/05/02 00:05:47;;;;;;;;;;;11.50;99.90;;;;;;5033361;28;19951;-78
2023/05/02 00:08:15;;;;;;;;;;;11.50;99.90;;;;;;5031947;28;19991;-78
2023/05/02 00:10:44;;;;;;;;;;;11.40;99.90;;;;;;5032894;28;20440;-78
2023/05/02 00:13:12;;;;;;;;;;;11.40;99.90;;;;;;5039567;28;20414;-77
2023/05/02 00:15:39;;;;;;;;;;;11.40;99.90;;;;;;5033626;28;19983;-78
2023/05/02 00:18:06;;;;;;;;;;;11.40;99.90;;;;;;5022452;28;20039;-78
2023/05/02 00:20:33;;;;;;;;;;;11.40;99.90;;;;;;5032687;28;19957;-78
2023/05/02 00:23:02;;;;;;;;;;;11.40;99.90;;;;;;5018228;28;19970;-78
2023/05/02 00:25:29;;;;;;;;;;;11.40;99.90;;;;;;5028638;28;19940;-78
2023/05/02 00:27:56;;;;;;;;;;;11.40;99.90;;;;;;5035436;28;19932;-78
2023/05/02 00:30:27;;;;;;;;;;;11.40;99.90;;;;;;5012030;28;19940;-78
2023/05/02 00:32:56;;;;;;;;;;;11.40;99.90;;;;;;5015828;28;19932;-78
2023/05/02 00:35:24;;;;;;;;;;;11.30;99.90;;;;;;5034458;28;19960;-77
2023/05/02 00:37:50;;;;;;;;;;;11.30;99.90;;;;;;5024290;28;19988;-78
2023/05/02 00:40:18;;;;;;;;;;;11.30;99.90;;;;;;5024931;28;19926;-77
2023/05/02 00:42:45;;;;;;;;;;;11.30;99.90;;;;;;5019201;28;19952;-78
2023/05/02 00:45:12;;;;;;;;;;;11.30;99.90;;;;;;5029461;28;19932;-78
2023/05/02 00:47:41;;;;;;;;;;;11.30;99.90;;;;;;5033857;28;20020;-77
2023/05/02 00:50:08;;;;;;;;;;;11.30;99.90;;;;;;5032769;28;20422;-78
2023/05/02 00:52:35;;;;;;;;;;;11.30;99.90;;;;;;5035335;28;19933;-78
2023/05/02 00:55:04;;;;;;;;;;;11.20;99.90;;;;;;5032762;28;20032;-78
2023/05/02 00:57:32;;;;;;;;;;;11.20;99.90;;;;;;5032530;28;19932;-78
2023/05/02 01:00:03;;;;;;;;;;;11.20;99.90;;;;;;5037772;28;19994;-77
2023/05/02 01:02:38;;;;;;;;;;;11.20;99.90;;;;;;5033514;28;19925;-78
2023/05/02 01:05:10;;;;;;;;;;;11.20;99.90;;;;;;5028406;28;20016;-77
2023/05/02 01:07:54;;;;;;;;;;;11.20;99.90;;;;;;5033322;28;19970;-78
2023/05/02 01:10:28;;;;;;;;;;;11.20;99.90;;;;;;5014043;28;19991;-78
2023/05/02 01:13:11;;;;;;;;;;;11.10;99.90;;;;;;5035231;28;20371;-78
2023/05/02 01:15:38;;;;;;;;;;;11.20;99.90;;;;;;5028430;28;19975;-78
2023/05/02 01:18:06;;;;;;;;;;;11.10;99.90;;;;;;5015685;28;19931;-78
2023/05/02 01:20:37;;;;;;;;;;;11.10;99.90;;;;;;5037852;28;19949;-77
2023/05/02 01:23:11;;;;;;;;;;;11.10;99.90;;;;;;5028284;28;19925;-78
2023/05/02 01:25:48;;;;;;;;;;;11.10;99.90;;;;;;5015784;28;19961;-78
2023/05/02 01:28:21;;;;;;;;;;;11.10;99.90;;;;;;5013696;28;19991;-77
2023/05/02 01:30:51;;;;;;;;;;;11.10;99.90;;;;;;5029304;28;19925;-78
2023/05/02 01:33:18;;;;;;;;;;;11.00;99.90;;;;;;5027297;28;19929;-77
2023/05/02 01:35:50;;;;;;;;;;;11.10;99.90;;;;;;5016028;28;19925;-78
2023/05/02 01:38:17;;;;;;;;;;;11.00;99.90;;;;;;5027373;28;19933;-78
2023/05/02 01:40:47;;;;;;;;;;;11.00;99.90;;;;;;5030126;28;19932;-77
2023/05/02 01:43:15;;;;;;;;;;;11.00;99.90;;;;;;5015249;28;20000;-78
2023/05/02 01:48:35;;;;;;;;;;;11.00;99.90;;;;;;4971011;28;19933;-78
2023/05/02 01:51:02;;;;;;;;;;;10.90;99.90;;;;;;5032499;28;19936;-78
2023/05/02 01:53:30;;;;;;;;;;;10.90;99.90;;;;;;5012579;28;19933;-78
2023/05/02 01:55:59;;;;;;;;;;;10.90;99.90;;;;;;5026541;28;19925;-78
2023/05/02 01:58:27;;;;;;;;;;;10.90;99.90;;;;;;5009929;28;20376;-77
2023/05/02 02:00:54;;;;;;;;;;;10.90;99.90;;;;;;5035583;28;19935;-78
2023/05/02 02:03:22;;;;;;;;;;;10.90;99.90;;;;;;5012244;28;19925;-77
2023/05/02 02:05:52;;;;;;;;;;;10.90;99.90;;;;;;5008134;28;19929;-78
2023/05/02 02:08:22;;;;;;;;;;;10.90;99.90;;;;;;5012510;28;19933;-78
2023/05/02 02:10:53;;;;;;;;;;;10.90;99.90;;;;;;5015644;28;19928;-77
2023/05/02 02:13:25;;;;;;;;;;;10.80;99.90;;;;;;5023639;28;19963;-77
2023/05/02 02:15:56;;;;;;;;;;;10.80;99.90;;;;;;5014351;28;20451;-78
2023/05/02 02:18:25;;;;;;;;;;;10.80;99.90;;;;;;5032898;28;19948;-78
2023/05/02 02:20:54;;;;;;;;;;;10.80;99.90;;;;;;5031949;28;19925;-78
2023/05/02 02:23:23;;;;;;;;;;;10.70;99.90;;;;;;5027312;28;19925;-77
2023/05/02 02:25:50;;;;;;;;;;;10.80;99.90;;;;;;5044004;28;19925;-78
2023/05/02 02:28:17;;;;;;;;;;;10.70;99.90;;;;;;5032092;28;19979;-77
2023/05/02 02:30:44;;;;;;;;;;;10.80;99.90;;;;;;5022198;28;19976;-78
2023/05/02 02:33:11;;;;;;;;;;;10.70;99.90;;;;;;5029373;28;20399;-78
2023/05/02 02:35:40;;;;;;;;;;;10.70;99.90;;;;;;5019837;28;19960;-78
2023/05/02 02:38:12;;;;;;;;;;;10.70;99.90;;;;;;5030183;28;20802;-79
2023/05/02 02:40:41;;;;;;;;;;;10.70;99.90;;;;;;5023405;28;19925;-78
2023/05/02 02:43:13;;;;;;;;;;;10.70;99.90;;;;;;5033908;28;19971;-78
2023/05/02 02:45:49;;;;;;;;;;;10.60;99.90;;;;;;5038335;28;19968;-79
2023/05/02 02:48:26;;;;;;;;;;;10.60;99.90;;;;;;5021463;28;20405;-77
2023/05/02 02:50:58;;;;;;;;;;;10.60;99.90;;;;;;5015543;28;19952;-78
2023/05/02 02:53:30;;;;;;;;;;;10.60;99.90;;;;;;5036887;28;20453;-77
2023/05/02 02:56:00;;;;;;;;;;;10.60;99.90;;;;;;5038201;28;19925;-78
2023/05/02 02:58:31;;;;;;;;;;;10.60;99.90;;;;;;5034695;28;19933;-78
2023/05/02 03:01:02;;;;;;;;;;;10.60;99.90;;;;;;5030356;28;20453;-79
2023/05/02 03:03:30;;;;;;;;;;;10.50;99.90;;;;;;5037706;28;19998;-78
2023/05/02 03:05:57;;;;;;;;;;;10.50;99.90;;;;;;5031515;28;20035;-77
2023/05/02 03:08:25;;;;;;;;;;;10.50;99.90;;;;;;5016553;28;19931;-78
2023/05/02 03:10:53;;;;;;;;;;;10.50;99.90;;;;;;5032918;28;19929;-77
2023/05/02 03:13:20;;;;;;;;;;;10.50;99.90;;;;;;5031964;28;19925;-78
2023/05/02 03:16:20;;;;;;;;;;;10.50;99.90;;;;;;5013963;28;20315;-77
2023/05/02 03:18:48;;;;;;;;;;;10.50;99.90;;;;;;4974048;28;19926;-78
2023/05/02 03:21:15;;;;;;;;;;;10.40;99.90;;;;;;4958377;28;20410;-77
2023/05/02 03:23:43;;;;;;;;;;;10.40;99.90;;;;;;4980071;28;19999;-78
2023/05/02 03:26:13;;;;;;;;;;;10.40;99.90;;;;;;5035264;28;19968;-78
2023/05/02 03:28:40;;;;;;;;;;;10.40;99.90;;;;;;5036934;28;19980;-78
2023/05/02 03:31:08;;;;;;;;;;;10.40;99.90;;;;;;5027010;28;19940;-78
2023/05/02 03:33:39;;;;;;;;;;;10.40;99.90;;;;;;5017626;28;19925;-78
2023/05/02 03:36:07;;;;;;;;;;;10.40;99.90;;;;;;5019955;28;19925;-78
2023/05/02 03:38:34;;;;;;;;;;;10.40;99.90;;;;;;5028415;28;19961;-77
2023/05/02 03:41:06;;;;;;;;;;;10.30;99.90;;;;;;5005341;28;20016;-77
2023/05/02 03:43:34;;;;;;;;;;;10.30;99.90;;;;;;5016360;28;19944;-77
2023/05/02 03:46:05;;;;;;;;;;;10.30;99.90;;;;;;5027387;28;20028;-79
2023/05/02 03:48:32;;;;;;;;;;;10.30;99.90;;;;;;5011040;28;20327;-77
2023/05/02 03:50:59;;;;;;;;;;;;;;;;;;5025403;28;19929;-77
2023/05/02 03:53:26;;;;;;;;;;;10.30;99.90;;;;;;5022597;28;19929;-78
2023/05/02 03:55:57;;;;;;;;;;;10.30;99.90;;;;;;5015005;28;19929;-77
2023/05/02 03:58:36;;;;;;;;;;;10.30;99.90;;;;;;5024822;28;19944;-79
2023/05/02 04:01:04;;;;;;;;;;;10.20;99.90;;;;;;5014028;28;19932;-78
2023/05/02 04:03:31;;;;;;;;;;;10.20;99.90;;;;;;5032635;28;19960;-79
2023/05/02 04:06:01;;;;;;;;;;;10.20;99.90;;;;;;5017469;28;19933;-78
2023/05/02 04:08:28;;;;;;;;;;;10.20;99.90;;;;;;5016880;28;19929;-79
2023/05/02 04:10:54;;;;;;;;;;;10.20;99.90;;;;;;5014807;28;19925;-79
2023/05/02 04:13:21;;;;;;;;;;;10.20;99.90;;;;;;5014462;28;19947;-78
2023/05/02 04:15:51;;;;;;;;;;;10.10;99.90;;;;;;5014451;28;19948;-78
2023/05/02 04:18:21;;;;;;;;;;;10.10;99.90;;;;;;5006401;28;20665;-78
2023/05/02 04:20:49;;;;;;;;;;;10.10;99.90;;;;;;5016806;28;19925;-78
2023/05/02 04:23:17;;;;;;;;;;;10.10;99.90;;;;;;5015976;28;19932;-79
2023/05/02 04:25:50;;;;;;;;;;;10.10;99.90;;;;;;5031203;28;20468;-78
2023/05/02 04:28:18;;;;;;;;;;;10.10;99.90;;;;;;5025795;28;19929;-78
2023/05/02 04:30:47;;;;;;;;;;;10.10;99.90;;;;;;5012176;28;19936;-78
2023/05/02 04:33:15;;;;;;;;;;;10.00;99.90;;;;;;5010918;28;19925;-78
2023/05/02 04:35:42;;;;;;;;;;;10.00;99.90;;;;;;5009243;28;20024;-78
2023/05/02 04:38:12;;;;;;;;;;;10.00;99.90;;;;;;5024390;28;20076;-78
2023/05/02 04:40:38;;;;;;;;;;;10.00;99.90;;;;;;5015468;28;19969;-77
2023/05/02 04:43:07;;;;;;;;;;;10.00;99.90;;;;;;4997606;28;20582;-77
2023/05/02 04:45:39;;;;;;;;;;;10.00;99.90;;;;;;5017589;28;19930;-78
2023/05/02 04:48:12;;;;;;;;;;;10.00;99.90;;;;;;5011668;28;19964;-78
2023/05/02 04:50:44;;;;;;;;;;;10.00;99.90;;;;;;5023142;28;19924;-78
2023/05/02 04:53:11;;;;;;;;;;;9.90;99.90;;;;;;5026415;28;19987;-77
2023/05/02 04:55:38;;;;;;;;;;;9.90;99.90;;;;;;5033315;28;20481;-78
2023/05/02 04:58:06;;;;;;;;;;;9.90;99.90;;;;;;5011714;28;19986;-79
2023/05/02 05:00:33;;;;;;;;;;;9.90;99.90;;;;;;5015718;28;20015;-77
2023/05/02 05:03:02;;;;;;;;;;;9.90;99.90;;;;;;5015980;28;19992;-76
2023/05/02 05:05:29;;;;;;;;;;;9.90;99.90;;;;;;5009425;28;20319;-78
2023/05/02 05:07:58;;;;;;;;;;;9.90;99.90;;;;;;5015942;28;19925;-79
2023/05/02 05:10:28;;;;;;;;;;;9.90;99.90;;;;;;5007226;28;20272;-76
2023/05/02 05:12:54;;;;;;;;;;;9.90;99.90;;;;;;5012910;28;19925;-78
2023/05/02 05:15:24;;;;;;;;;;;9.90;99.90;;;;;;5015898;28;19964;-79
2023/05/02 05:17:56;;;;;;;;;;;9.80;99.90;;;;;;5026641;28;19940;-78
2023/05/02 05:20:23;;;;;;;;;;;9.80;99.90;;;;;;5032757;28;20023;-78
2023/05/02 05:22:53;;;;;;;;;;;9.80;99.90;;;;;;5018272;28;19940;-79
2023/05/02 05:25:23;;;;;;;;;;;9.80;99.90;;;;;;5012066;28;19929;-77
2023/05/02 05:27:52;;;;;;;;;;;9.80;99.90;;;;;;5031392;28;19940;-78
2023/05/02 05:30:19;;;;;;;;;;;9.80;99.90;;;;;;5036116;28;20375;-77
2023/05/02 05:32:45;;;;;;;;;;;9.80;99.90;;;;;;5021492;28;19925;-78
2023/05/02 05:35:12;;;;;;;;;;;9.80;99.90;;;;;;5013410;28;19936;-77
2023/05/02 05:37:40;;;;;;;;;;;9.80;99.90;;;;;;5020563;28;20350;-78
2023/05/02 05:40:10;;;;;;;;;;;9.80;99.90;;;;;;5021357;28;20016;-78
2023/05/02 05:42:40;;;;;;;;;;;9.70;99.90;;;;;;5020217;22;19940;-73
2023/05/02 05:45:13;;;;;;;;;;;9.70;99.90;;;;;;4997440;28;20006;-75
2023/05/02 05:47:40;;;;;;;;;;;9.70;99.90;;;;;;5015644;28;19925;-74
2023/05/02 05:50:08;;;;;;;;;;;9.70;99.90;;;;;;4992764;28;20028;-75
2023/05/02 05:52:36;;;;;;;;;;;9.70;99.90;;;;;;4999572;28;20322;-75
2023/05/02 05:55:04;;;;;;;;;;;9.70;99.90;;;;;;4990196;28;19925;-74
2023/05/02 05:57:31;;;;;;;;;;;9.70;99.90;;;;;;4990080;28;20331;-74
2023/05/02 06:00:00;;;;;;;;;;;9.70;99.90;;;;;;4984544;28;19930;-74
2023/05/02 06:02:27;;;;;;;;;;;9.70;99.90;;;;;;4990149;28;19936;-74
2023/05/02 06:04:55;;;;;;;;;;;9.70;99.90;;;;;;4984960;28;19934;-74
2023/05/02 06:07:24;;;;;;;;;;;9.70;99.90;;;;;;4993374;28;19932;-74
2023/05/02 06:09:51;;;;;;;;;;;9.70;99.90;;;;;;4990058;28;19933;-75
2023/05/02 06:12:18;;;;;;;;;;;9.70;99.90;;;;;;4987411;28;19940;-74
2023/05/02 06:14:46;;;;;;;;;;;9.60;99.90;;;;;;4989605;28;19933;-76
2023/05/02 06:17:15;;;;;;;;;;;9.60;99.90;;;;;;4995553;28;19946;-76
2023/05/02 06:19:42;;;;;;;;;;;9.60;99.90;;;;;;4986128;28;20008;-76
2023/05/02 06:22:11;;;;;;;;;;;9.60;99.90;;;;;;4989900;28;20312;-76
2023/05/02 06:24:38;;;;;;;;;;;9.60;99.90;;;;;;4987466;28;20413;-74
2023/05/02 06:27:05;;;;;;;;;;;9.50;99.90;;;;;;5004489;28;19926;-76
2023/05/02 06:29:32;;;;;;;;;;;9.50;99.90;;;;;;5001491;28;19929;-76
2023/05/02 06:31:59;;;;;;;;;;;9.60;99.90;;;;;;5009555;28;19933;-76
2023/05/02 06:34:27;;;;;;;;;;;9.50;99.90;;;;;;5008371;28;19980;-76
2023/05/02 06:36:54;;;;;;;;;;;9.60;99.90;;;;;;4985179;28;19925;-74
2023/05/02 06:39:21;;;;;;;;;;;9.50;99.90;;;;;;5000323;28;19972;-74
2023/05/02 06:41:48;;;;;;;;;;;9.50;99.90;;;;;;4988298;28;20917;-74
2023/05/02 06:44:17;;;;;;;;;;;9.60;99.90;;;;;;4981914;28;20252;-76
2023/05/02 06:46:45;;;;;;;;;;;9.60;99.90;;;;;;4987002;28;19925;-76
2023/05/02 06:49:12;;;;;;;;;;;9.60;99.90;;;;;;5010719;28;20208;-75
2023/05/02 06:51:40;;;;;;;;;;;9.50;99.90;;;;;;5007479;28;19985;-76
2023/05/02 06:54:07;;;;;;;;;;;9.60;99.90;;;;;;4999785;28;20435;-75
2023/05/02 06:56:34;;;;;;;;;;;9.60;99.90;;;;;;4993005;28;19925;-74
2023/05/02 06:59:01;;;;;;;;;;;9.60;99.90;;;;;;4998912;28;20412;-73
2023/05/02 07:01:28;;;;;;;;;;;9.60;99.90;;;;;;4980839;28;20028;-76
2023/05/02 07:03:54;;;;;;;;;;;9.60;99.90;;;;;;4988116;28;20418;-73
2023/05/02 07:06:25;;;;;;;;;;;9.60;99.90;;;;;;5004173;28;19929;-74
2023/05/02 07:08:53;;;;;;;;;;;9.60;99.90;;;;;;4995306;28;19929;-73
2023/05/02 07:11:20;;;;;;;;;;;9.60;99.90;;;;;;5003204;28;20012;-74
2023/05/02 07:13:47;;;;;;;;;;;9.70;99.90;;;;;;5006017;28;19992;-74
2023/05/02 07:16:14;;;;;;;;;;;9.70;99.90;;;;;;4999694;28;20017;-73
2023/05/02 07:18:41;;;;;;;;;;;9.70;99.90;;;;;;4990584;28;19925;-74
2023/05/02 07:21:08;;;;;;;;;;;9.70;99.90;;;;;;4998764;28;19945;-74
2023/05/02 07:23:35;;;;;;;;;;;9.70;99.90;;;;;;5002609;28;20012;-74
2023/05/02 07:26:04;;;;;;;;;;;9.70;99.90;;;;;;5003722;28;19930;-73
2023/05/02 07:28:31;;;;;;;;;;;9.70;99.90;;;;;;5008269;28;20412;-73
2023/05/02 07:30:57;;;;;;;;;;;9.80;99.90;;;;;;5011336;28;20340;-74
2023/05/02 07:33:24;;;;;;;;;;;9.80;99.90;;;;;;5004269;28;20399;-73
2023/05/02 07:35:51;;;;;;;;;;;9.80;99.90;;;;;;5003638;28;20318;-73
2023/05/02 07:38:18;;;;;;;;;;;9.80;99.90;;;;;;4984782;28;19926;-73
2023/05/02 07:40:45;;;;;;;;;;;9.80;99.90;;;;;;4989427;28;19926;-73
2023/05/02 07:43:14;;;;;;;;;;;9.80;99.90;;;;;;4997003;28;20060;-73
2023/05/02 07:45:41;;;;;;;;;;;9.80;99.90;;;;;;5008060;28;19926;-76
2023/05/02 07:48:08;;;;;;;;;;;9.90;99.90;;;;;;4998403;28;20017;-74
2023/05/02 07:50:35;;;;;;;;;;;9.90;99.90;;;;;;4998765;28;19957;-76
2023/05/02 07:53:02;;;;;;;;;;;9.90;99.90;;;;;;4999452;28;20012;-76
2023/05/02 07:55:30;;;;;;;;;;;9.90;99.90;;;;;;4999245;28;19941;-75
2023/05/02 07:57:57;;;;;;;;;;;9.90;99.90;;;;;;4995438;28;20319;-76
2023/05/02 08:00:25;;;;;;;;;;;9.90;99.90;;;;;;5007113;28;20411;-75
2023/05/02 08:02:52;;;;;;;;;;;9.90;99.90;;;;;;4987024;28;20339;-76
2023/05/02 08:05:19;;;;;;;;;;;9.90;99.90;;;;;;4984192;28;19948;-76
2023/05/02 08:07:46;;;;;;;;;;;9.90;99.90;;;;;;4987992;28;19980;-74
2023/05/02 08:10:13;;;;;;;;;;;10.00;99.90;;;;;;5002998;28;20366;-75
2023/05/02 08:12:40;;;;;;;;;;;10.00;99.90;;;;;;4992981;28;19925;-76
2023/05/02 08:15:08;;;;;;;;;;;10.00;99.90;;;;;;4988478;28;19956;-74
2023/05/02 08:17:36;;;;;;;;;;;10.00;99.90;;;;;;4995696;28;19956;-76
2023/05/02 08:20:03;;;;;;;;;;;10.00;99.90;;;;;;5003956;28;20020;-72
2023/05/02 08:22:30;;;;;;;;;;;10.00;99.90;;;;;;5005580;28;19926;-75
2023/05/02 08:24:57;;;;;;;;;;;10.00;99.90;;;;;;5003769;28;20008;-73
2023/05/02 08:27:24;;;;;;;;;;;10.00;99.90;;;;;;5003044;28;19926;-76
2023/05/02 08:29:51;;;;;;;;;;;10.10;99.90;;;;;;4996849;28;19965;-76
2023/05/02 08:32:17;;;;;;;;;;;10.10;99.90;;;;;;4983173;28;19929;-75
2023/05/02 08:34:46;;;;;;;;;;;10.10;99.90;;;;;;5002530;28;19933;-75
2023/05/02 08:37:13;;;;;;;;;;;10.10;99.90;;;;;;5001923;28;19929;-73
2023/05/02 08:39:39;;;;;;;;;;;10.10;99.90;;;;;;4999631;28;19926;-76
2023/05/02 08:42:07;;;;;;;;;;;10.10;99.90;;;;;;4997988;28;19925;-75
2023/05/02 08:44:34;;;;;;;;;;;10.20;99.90;;;;;;4999273;28;19961;-76
2023/05/02 08:47:01;;;;;;;;;;;10.20;99.90;;;;;;4998129;28;20441;-76
2023/05/02 08:49:29;;;;;;;;;;;10.20;99.90;;;;;;4994979;28;20111;-76
2023/05/02 08:51:58;;;;;;;;;;;10.20;99.90;;;;;;5001941;28;19929;-75
2023/05/02 08:54:25;;;;;;;;;;;10.30;99.90;;;;;;5000566;28;20011;-76
2023/05/02 08:56:53;;;;;;;;;;;10.30;99.90;;;;;;5001882;28;19925;-74
2023/05/02 08:59:20;;;;;;;;;;;10.30;99.90;;;;;;5003427;28;20399;-75
2023/05/02 09:01:49;;;;;;;;;;;10.30;99.90;;;;;;4989021;28;20298;-75
2023/05/02 09:04:15;;;;;;;;;;;10.30;99.90;;;;;;4991828;28;19926;-76
2023/05/02 09:06:42;;;;;;;;;;;10.30;99.90;;;;;;5004142;28;19925;-75
2023/05/02 09:09:10;;;;;;;;;;;10.40;99.90;;;;;;4983408;28;19932;-76
2023/05/02 09:11:37;;;;;;;;;;;10.40;99.90;;;;;;5007242;28;19929;-76
2023/05/02 09:14:13;;;;;;;;;;;10.40;99.90;;;;;;5001761;28;19926;-75
2023/05/02 09:16:40;;;;;;;;;;;10.40;99.90;;;;;;5002907;28;19926;-75
2023/05/02 09:19:07;;;;;;;;;;;10.50;99.90;;;;;;4999539;28;19930;-75
2023/05/02 09:21:38;;;;;;;;;;;10.50;99.90;;;;;;5000248;28;19969;-76
2023/05/02 09:24:16;;;;;;;;;;;10.50;99.90;;;;;;4999990;28;19929;-76
2023/05/02 09:26:57;;;;;;;;;;;10.50;99.90;;;;;;5004912;28;19929;-76
2023/05/02 09:29:24;;;;;;;;;;;10.60;99.90;;;;;;4998931;28;19925;-75
2023/05/02 09:31:51;;;;;;;;;;;10.60;99.90;;;;;;4979437;28;19939;-75
2023/05/02 09:34:18;;;;;;;;;;;10.60;99.90;;;;;;4989724;28;19973;-75
2023/05/02 09:36:49;;;;;;;;;;;10.60;99.90;;;;;;4993241;28;19932;-75
2023/05/02 09:39:18;;;;;;;;;;;10.70;99.90;;;;;;4995229;28;19934;-76
2023/05/02 09:41:46;;;;;;;;;;;10.70;99.90;;;;;;4996689;28;19964;-75
2023/05/02 09:44:17;;;;;;;;;;;10.70;99.90;;;;;;4994996;28;20145;-74
2023/05/02 09:46:45;;;;;;;;;;;10.80;99.90;;;;;;4979633;28;19980;-75
2023/05/02 09:49:13;;;;;;;;;;;10.80;99.90;;;;;;4995994;28;19934;-76
2023/05/02 09:51:42;;;;;;;;;;;10.80;99.90;;;;;;5009858;28;19962;-76
2023/05/02 09:54:09;;;;;;;;;;;10.80;99.90;;;;;;5001065;28;20364;-76
2023/05/02 09:56:51;;;;;;;;;;;10.90;99.90;;;;;;5002117;28;19933;-75
2023/05/02 09:59:19;;;;;;;;;;;10.90;99.90;;;;;;5000701;28;20355;-75
2023/05/02 10:01:47;;;;;;;;;;;10.90;99.90;;;;;;4986046;28;20000;-74
2023/05/02 10:04:15;;;;;;;;;;;10.90;99.90;;;;;;4996376;28;20450;-75
2023/05/02 10:06:45;;;;;;;;;;;10.90;99.90;;;;;;4982508;28;19925;-76
2023/05/02 10:09:12;;;;;;;;;;;11.00;99.90;;;;;;5004036;28;19944;-75
2023/05/02 10:11:39;;;;;;;;;;;11.00;99.90;;;;;;4998502;28;19932;-76
2023/05/02 10:14:09;;;;;;;;;;;11.00;99.90;;;;;;4993686;28;19925;-75
2023/05/02 10:16:40;;;;;;;;;;;11.00;99.90;;;;;;4998988;28;20348;-74
2023/05/02 10:19:09;;;;;;;;;;;11.00;99.90;;;;;;5000517;28;19925;-75
2023/05/02 10:21:36;;;;;;;;;;;11.00;99.90;;;;;;4993400;28;20047;-75
2023/05/02 10:24:04;;;;;;;;;;;11.10;99.90;;;;;;4996853;28;19934;-74
2023/05/02 10:26:33;;;;;;;;;;;11.10;99.90;;;;;;5006816;28;19959;-75
2023/05/02 10:29:00;;;;;;;;;;;11.10;99.90;;;;;;4996332;28;20381;-75
2023/05/02 10:31:28;;;;;;;;;;;11.10;99.90;;;;;;4992144;28;19968;-74
2023/05/02 10:33:57;;;;;;;;;;;11.20;99.90;;;;;;5000767;28;19972;-74
2023/05/02 10:36:25;;;;;;;;;;;11.20;99.90;;;;;;4998559;28;19953;-75
2023/05/02 10:38:52;;;;;;;;;;;11.20;99.90;;;;;;5004582;28;20363;-75
2023/05/02 10:41:21;;;;;;;;;;;11.30;99.90;;;;;;4994570;28;19925;-73
2023/05/02 10:43:48;;;;;;;;;;;11.30;99.90;;;;;;4994056;28;19936;-74
2023/05/02 10:46:32;;;;;;;;;;;11.30;99.90;;;;;;4994626;28;20402;-74
2023/05/02 10:49:05;;;;;;;;;;;11.30;99.90;;;;;;4985495;28;19944;-75
2023/05/02 10:51:32;;;;;;;;;;;11.40;99.90;;;;;;5004555;28;20012;-73
2023/05/02 10:54:18;;;;;;;;;;;11.50;99.90;;;;;;5006590;28;19926;-74
2023/05/02 10:57:07;;;;;;;;;;;11.50;99.90;;;;;;4981715;28;20309;-75
2023/05/02 10:59:35;;;;;;;;;;;11.50;99.90;;;;;;5005439;28;19925;-74
2023/05/02 11:02:02;;;;;;;;;;;11.50;99.90;;;;;;5005039;28;19940;-74
2023/05/02 11:04:43;;;;;;;;;;;11.60;99.90;;;;;;4992805;28;20013;-75
2023/05/02 11:07:18;;;;;;;;;;;11.60;99.90;;;;;;5000324;28;20478;-74
2023/05/02 11:09:45;;;;;;;;;;;11.60;99.90;;;;;;5006600;28;19932;-74
2023/05/02 11:12:32;;;;;;;;;;;11.70;99.90;;;;;;5006917;28;19973;-74
2023/05/02 11:14:59;;;;;;;;;;;11.70;99.90;;;;;;4995809;28;19930;-74
2023/05/02 11:17:26;;;;;;;;;;;11.80;99.90;;;;;;4992515;28;19937;-75
2023/05/02 11:20:24;;;;;;;;;;;11.80;99.90;;;;;;5009208;28;19936;-74
2023/05/02 11:22:53;;;;;;;;;;;11.70;99.90;;;;;;5000544;28;19960;-74
2023/05/02 11:25:44;;;;;;;;;;;11.80;99.90;;;;;;4978380;28;19957;-75
2023/05/02 11:28:26;;;;;;;;;;;11.90;99.90;;;;;;4975786;28;19941;-74
2023/05/02 11:30:52;;;;;;;;;;;11.90;99.90;;;;;;5004336;28;19925;-75
2023/05/02 11:33:19;;;;;;;;;;;11.90;99.90;;;;;;5001743;28;20408;-75
2023/05/02 11:35:47;;;;;;;;;;;11.90;99.90;;;;;;4999744;28;20358;-74
2023/05/02 11:38:19;;;;;;;;;;;12.00;99.90;;;;;;5001743;28;20444;-75
2023/05/02 11:40:50;;;;;;;;;;;12.00;99.90;;;;;;4989488;28;19938;-74
2023/05/02 11:43:20;;;;;;;;;;;12.00;99.90;;;;;;4998323;28;19930;-75
2023/05/02 11:45:48;;;;;;;;;;;12.10;99.90;;;;;;4996874;28;19926;-75
2023/05/02 11:48:17;;;;;;;;;;;12.10;99.90;;;;;;4981958;28;19926;-74
2023/05/02 11:50:45;;;;;;;;;;;12.10;99.90;;;;;;4993577;28;19933;-75
2023/05/02 11:53:16;;;;;;;;;;;12.20;99.90;;;;;;4998251;28;19925;-75
2023/05/02 11:55:48;;;;;;;;;;;12.20;99.90;;;;;;4988518;28;20407;-75
2023/05/02 11:58:16;;;;;;;;;;;12.20;99.90;;;;;;5001305;28;19930;-74
2023/05/02 12:00:45;;;;;;;;;;;12.20;99.90;;;;;;5004402;28;19925;-74
2023/05/02 12:03:22;;;;;;;;;;;12.30;99.90;;;;;;5000873;28;20008;-74
2023/05/02 12:05:50;;;;;;;;;;;12.30;99.90;;;;;;5003379;28;20498;-74
2023/05/02 12:08:20;;;;;;;;;;;12.30;99.90;;;;;;4996263;28;19929;-76
2023/05/02 12:10:48;;;;;;;;;;;;;;;;;;5009021;28;20455;-75
2023/05/02 12:13:16;;;;;;;;;;;12.30;99.90;;;;;;4981517;28;20164;-75
2023/05/02 12:15:43;;;;;;;;;;;12.40;99.90;;;;;;5001853;28;19980;-74
2023/05/02 12:18:10;;;;;;;;;;;12.40;99.90;;;;;;5009760;28;19937;-74
2023/05/02 12:20:38;;;;;;;;;;;12.50;99.90;;;;;;5006292;28;19925;-74
2023/05/02 12:23:06;;;;;;;;;;;12.50;99.90;;;;;;5001079;28;19948;-75
2023/05/02 12:25:36;;;;;;;;;;;12.50;99.90;;;;;;5003859;28;19995;-75
2023/05/02 12:28:03;;;;;;;;;;;12.50;99.90;;;;;;4995145;28;19936;-75
2023/05/02 12:30:32;;;;;;;;;;;12.60;99.90;;;;;;5000096;28;20392;-75
2023/05/02 12:33:00;;;;;;;;;;;12.70;99.90;;;;;;4993765;28;19929;-74
2023/05/02 12:35:27;;;;;;;;;;;12.80;99.90;;;;;;4983626;28;20320;-77
2023/05/02 12:37:54;;;;;;;;;;;12.80;99.90;;;;;;4981262;28;20356;-74
2023/05/02 12:40:22;;;;;;;;;;;12.80;99.90;;;;;;4988606;28;19933;-75
2023/05/02 12:43:03;;;;;;;;;;;12.80;99.90;;;;;;5000048;28;20214;-73
2023/05/02 12:45:33;;;;;;;;;;;12.80;99.90;;;;;;5004102;28;19945;-77
2023/05/02 12:48:01;;;;;;;;;;;12.80;99.90;;;;;;4994807;28;20459;-76
2023/05/02 12:50:40;;;;;;;;;;;12.90;99.90;;;;;;4988964;28;20030;-75
2023/05/02 12:53:06;;;;;;;;;;;12.90;99.90;;;;;;4999329;28;20442;-76
2023/05/02 12:55:33;;;;;;;;;;;12.90;99.90;;;;;;5001502;28;19925;-75
2023/05/02 12:58:00;;;;;;;;;;;12.90;99.90;;;;;;4982692;28;21124;-74
2023/05/02 13:00:27;;;;;;;;;;;12.90;99.90;;;;;;5004132;28;20331;-75
2023/05/02 13:02:54;;;;;;;;;;;12.90;99.90;;;;;;5005308;28;19925;-75
2023/05/02 13:05:23;;;;;;;;;;;13.00;99.90;;;;;;4991791;28;20028;-74
2023/05/02 13:07:50;;;;;;;;;;;13.00;99.90;;;;;;5002174;28;20022;-75
2023/05/02 13:10:17;;;;;;;;;;;13.00;99.90;;;;;;5001485;28;19926;-73
2023/05/02 13:12:45;;;;;;;;;;;13.00;99.90;;;;;;5004115;28;20442;-74
2023/05/02 13:15:12;;;;;;;;;;;13.10;99.90;;;;;;4984126;28;20467;-75
2023/05/02 13:17:39;;;;;;;;;;;13.10;99.90;;;;;;4999527;28;19988;-74
2023/05/02 13:20:07;;;;;;;;;;;13.10;99.90;;;;;;5005920;28;20032;-74
2023/05/02 13:22:36;;;;;;;;;;;13.10;99.90;;;;;;4998071;28;20068;-74
2023/05/02 13:25:03;;;;;;;;;;;13.20;99.90;;;;;;4992808;28;19988;-74
2023/05/02 13:27:30;;;;;;;;;;;13.20;99.90;;;;;;4992111;28;19929;-75
2023/05/02 13:29:56;;;;;;;;;;;13.20;99.90;;;;;;4996836;28;20397;-74
2023/05/02 13:32:23;;;;;;;;;;;13.30;99.90;;;;;;5001962;28;19937;-74
2023/05/02 13:34:50;;;;;;;;;;;13.30;99.90;;;;;;4991852;28;19934;-75
2023/05/02 13:37:17;;;;;;;;;;;13.30;99.90;;;;;;4996238;28;19937;-73
2023/05/02 13:39:45;;;;;;;;;;;13.30;99.90;;;;;;5000229;28;19925;-73
2023/05/02 13:42:12;;;;;;;;;;;13.40;99.90;;;;;;4998955;28;19937;-73
2023/05/02 13:44:39;;;;;;;;;;;13.40;99.90;;;;;;4985245;28;19932;-73
2023/05/02 13:47:06;;;;;;;;;;;13.40;99.90;;;;;;4981507;28;19926;-73
2023/05/02 13:49:33;;;;;;;;;;;13.40;99.90;;;;;;4981687;28;20404;-73
2023/05/02 13:51:59;;;;;;;;;;;13.40;99.90;;;;;;4976151;28;19927;-74
2023/05/02 13:54:27;;;;;;;;;;;13.40;99.90;;;;;;5004197;28;19925;-74
2023/05/02 13:56:55;;;;;;;;;;;13.50;99.90;;;;;;5000939;28;19925;-73
2023/05/02 13:59:22;;;;;;;;;;;13.50;99.90;;;;;;4999614;28;19933;-74
2023/05/02 14:01:49;;;;;;;;;;;13.50;99.90;;;;;;5004934;28;19934;-75
2023/05/02 14:04:15;;;;;;;;;;;13.50;99.90;;;;;;4988025;28;20403;-74
2023/05/02 14:06:42;;;;;;;;;;;13.60;99.90;;;;;;4997985;28;19965;-74
2023/05/02 14:09:09;;;;;;;;;;;13.60;99.90;;;;;;4994596;28;20017;-73
2023/05/02 14:11:36;;;;;;;;;;;13.70;99.90;;;;;;5000196;28;19933;-74
2023/05/02 14:14:04;;;;;;;;;;;13.80;99.90;;;;;;5000150;28;20019;-74
2023/05/02 14:16:31;;;;;;;;;;;13.80;99.90;;;;;;5004043;28;20043;-74
2023/05/02 14:18:58;;;;;;;;;;;13.80;99.90;;;;;;4998120;28;19951;-74
2023/05/02 14:21:25;;;;;;;;;;;13.80;99.90;;;;;;5000806;28;19948;-74
2023/05/02 14:23:51;;;;;;;;;;;13.90;99.90;;;;;;5005668;28;19930;-74
2023/05/02 14:26:19;;;;;;;;;;;14.00;99.90;;;;;;5003961;28;20274;-74
2023/05/02 14:28:46;;;;;;;;;;;14.10;99.90;;;;;;4999569;28;19926;-74
2023/05/02 14:31:14;;;;;;;;;;;14.20;99.90;;;;;;5007714;28;20370;-75
2023/05/02 14:33:41;;;;;;;;;;;14.20;99.90;;;;;;5005018;28;20484;-74